sensor_id;sensor_type;location;lat;lon;timestamp;pressure;altitude;pressure_sealevel;temperature
70415;BMP280;57837;52.064;113.478;2024-02-14T00:00:27;94776.03;;;-15.50
70415;BMP280;57837;52.064;113.478;2024-02-14T00:03:31;94768.50;;;-15.39
70415;BMP280;57837;52.064;113.478;2024-02-14T00:06:36;94775.81;;;-15.49
70415;BMP280;57837;52.064;113.478;2024-02-14T00:09:40;94782.84;;;-15.63
70415;BMP280;57837;52.064;113.478;2024-02-14T00:12:44;94779.31;;;-15.67
70415;BMP280;57837;52.064;113.478;2024-02-14T00:15:49;94773.69;;;-15.62
70415;BMP280;57837;52.064;113.478;2024-02-14T00:18:54;94786.53;;;-15.65
70415;BMP280;57837;52.064;113.478;2024-02-14T00:21:58;94795.31;;;-15.74
70415;BMP280;57837;52.064;113.478;2024-02-14T00:25:01;94794.56;;;-15.75
70415;BMP280;57837;52.064;113.478;2024-02-14T00:28:05;94798.31;;;-15.72
70415;BMP280;57837;52.064;113.478;2024-02-14T00:31:09;94800.28;;;-15.74
70415;BMP280;57837;52.064;113.478;2024-02-14T00:34:12;94799.59;;;-15.70
70415;BMP280;57837;52.064;113.478;2024-02-14T00:37:17;94802.75;;;-15.74
70415;BMP280;57837;52.064;113.478;2024-02-14T00:40:20;94806.34;;;-15.65
70415;BMP280;57837;52.064;113.478;2024-02-14T00:43:23;94803.28;;;-15.34
70415;BMP280;57837;52.064;113.478;2024-02-14T00:46:26;94809.06;;;-15.06
70415;BMP280;57837;52.064;113.478;2024-02-14T00:49:34;94809.53;;;-14.87
70415;BMP280;57837;52.064;113.478;2024-02-14T00:52:37;94806.06;;;-14.86
70415;BMP280;57837;52.064;113.478;2024-02-14T00:55:40;94812.53;;;-14.31
70415;BMP280;57837;52.064;113.478;2024-02-14T00:58:44;94813.94;;;-13.76
70415;BMP280;57837;52.064;113.478;2024-02-14T01:01:49;94812.19;;;-13.34
70415;BMP280;57837;52.064;113.478;2024-02-14T01:04:52;94817.09;;;-12.81
70415;BMP280;57837;52.064;113.478;2024-02-14T01:07:55;94811.44;;;-12.61
70415;BMP280;57837;52.064;113.478;2024-02-14T01:10:58;94819.38;;;-12.49
70415;BMP280;57837;52.064;113.478;2024-02-14T01:14:02;94822.91;;;-12.30
70415;BMP280;57837;52.064;113.478;2024-02-14T01:17:05;94829.16;;;-11.92
70415;BMP280;57837;52.064;113.478;2024-02-14T01:20:09;94835.84;;;-11.67
70415;BMP280;57837;52.064;113.478;2024-02-14T01:23:12;94829.53;;;-11.44
70415;BMP280;57837;52.064;113.478;2024-02-14T01:26:15;94824.56;;;-11.44
70415;BMP280;57837;52.064;113.478;2024-02-14T01:29:18;94830.25;;;-11.28
70415;BMP280;57837;52.064;113.478;2024-02-14T01:32:22;94834.50;;;-11.23
70415;BMP280;57837;52.064;113.478;2024-02-14T01:35:26;94836.41;;;-11.05
70415;BMP280;57837;52.064;113.478;2024-02-14T01:38:29;94834.78;;;-10.81
70415;BMP280;57837;52.064;113.478;2024-02-14T01:41:43;94834.63;;;-10.50
70415;BMP280;57837;52.064;113.478;2024-02-14T01:44:49;94829.63;;;-10.50
70415;BMP280;57837;52.064;113.478;2024-02-14T01:47:52;94836.59;;;-10.42
70415;BMP280;57837;52.064;113.478;2024-02-14T01:50:56;94834.28;;;-10.38
70415;BMP280;57837;52.064;113.478;2024-02-14T01:54:00;94838.44;;;-10.24
70415;BMP280;57837;52.064;113.478;2024-02-14T01:57:05;94841.00;;;-10.00
70415;BMP280;57837;52.064;113.478;2024-02-14T02:00:09;94829.91;;;-9.89
70415;BMP280;57837;52.064;113.478;2024-02-14T02:03:22;94834.75;;;-9.73
70415;BMP280;57837;52.064;113.478;2024-02-14T02:06:26;94839.69;;;-9.39
70415;BMP280;57837;52.064;113.478;2024-02-14T02:09:30;94831.06;;;-8.90
70415;BMP280;57837;52.064;113.478;2024-02-14T02:12:34;94821.34;;;-9.35
70415;BMP280;57837;52.064;113.478;2024-02-14T02:15:36;94824.91;;;-9.22
70415;BMP280;57837;52.064;113.478;2024-02-14T02:18:40;94824.19;;;-8.66
70415;BMP280;57837;52.064;113.478;2024-02-14T02:21:43;94827.16;;;-8.13
70415;BMP280;57837;52.064;113.478;2024-02-14T02:24:49;94819.00;;;-8.37
70415;BMP280;57837;52.064;113.478;2024-02-14T02:27:55;94816.75;;;-8.52
70415;BMP280;57837;52.064;113.478;2024-02-14T02:31:02;94820.19;;;-8.48
70415;BMP280;57837;52.064;113.478;2024-02-14T02:34:06;94815.63;;;-8.14
70415;BMP280;57837;52.064;113.478;2024-02-14T02:37:11;94812.72;;;-7.75
70415;BMP280;57837;52.064;113.478;2024-02-14T02:40:15;94810.47;;;-7.62
70415;BMP280;57837;52.064;113.478;2024-02-14T02:43:19;94808.75;;;-7.12
70415;BMP280;57837;52.064;113.478;2024-02-14T02:46:23;94804.00;;;-7.27
70415;BMP280;57837;52.064;113.478;2024-02-14T02:49:28;94808.13;;;-6.73
70415;BMP280;57837;52.064;113.478;2024-02-14T02:52:32;94799.16;;;-6.88
70415;BMP280;57837;52.064;113.478;2024-02-14T02:55:36;94803.31;;;-7.05
70415;BMP280;57837;52.064;113.478;2024-02-14T02:58:40;94797.72;;;-7.02
70415;BMP280;57837;52.064;113.478;2024-02-14T03:01:45;94799.81;;;-7.18
70415;BMP280;57837;52.064;113.478;2024-02-14T03:04:47;94788.63;;;-7.12
70415;BMP280;57837;52.064;113.478;2024-02-14T03:07:54;94788.94;;;-6.91
70415;BMP280;57837;52.064;113.478;2024-02-14T03:11:05;94793.03;;;-6.51
70415;BMP280;57837;52.064;113.478;2024-02-14T03:14:09;94792.47;;;-6.92
70415;BMP280;57837;52.064;113.478;2024-02-14T03:17:13;94797.78;;;-7.30
70415;BMP280;57837;52.064;113.478;2024-02-14T03:20:18;94785.50;;;-6.95
70415;BMP280;57837;52.064;113.478;2024-02-14T03:23:23;94792.22;;;-7.04
70415;BMP280;57837;52.064;113.478;2024-02-14T03:26:27;94788.72;;;-7.17
70415;BMP280;57837;52.064;113.478;2024-02-14T03:29:30;94788.34;;;-7.24
70415;BMP280;57837;52.064;113.478;2024-02-14T03:32:35;94786.88;;;-7.39
70415;BMP280;57837;52.064;113.478;2024-02-14T03:35:38;94787.81;;;-7.35
70415;BMP280;57837;52.064;113.478;2024-02-14T03:38:42;94775.06;;;-7.02
70415;BMP280;57837;52.064;113.478;2024-02-14T03:41:46;94785.88;;;-6.80
70415;BMP280;57837;52.064;113.478;2024-02-14T03:44:49;94783.31;;;-6.88
70415;BMP280;57837;52.064;113.478;2024-02-14T03:47:52;94779.63;;;-6.91
70415;BMP280;57837;52.064;113.478;2024-02-14T03:50:55;94782.78;;;-6.99
70415;BMP280;57837;52.064;113.478;2024-02-14T03:54:00;94785.72;;;-6.83
70415;BMP280;57837;52.064;113.478;2024-02-14T03:57:04;94778.97;;;-6.74
70415;BMP280;57837;52.064;113.478;2024-02-14T04:00:11;94777.09;;;-6.68
70415;BMP280;57837;52.064;113.478;2024-02-14T04:03:15;94774.88;;;-6.92
70415;BMP280;57837;52.064;113.478;2024-02-14T04:06:20;94766.63;;;-6.84
70415;BMP280;57837;52.064;113.478;2024-02-14T04:09:24;94763.66;;;-7.08
70415;BMP280;57837;52.064;113.478;2024-02-14T04:12:28;94774.22;;;-6.98
70415;BMP280;57837;52.064;113.478;2024-02-14T04:15:32;94766.28;;;-6.91
70415;BMP280;57837;52.064;113.478;2024-02-14T04:18:36;94766.69;;;-7.12
70415;BMP280;57837;52.064;113.478;2024-02-14T04:21:40;94766.91;;;-7.08
70415;BMP280;57837;52.064;113.478;2024-02-14T04:24:44;94767.38;;;-6.84
70415;BMP280;57837;52.064;113.478;2024-02-14T04:27:48;94756.09;;;-6.64
70415;BMP280;57837;52.064;113.478;2024-02-14T04:30:52;94759.81;;;-6.84
70415;BMP280;57837;52.064;113.478;2024-02-14T04:33:58;94747.25;;;-6.84
70415;BMP280;57837;52.064;113.478;2024-02-14T04:37:02;94742.16;;;-6.70
70415;BMP280;57837;52.064;113.478;2024-02-14T04:40:13;94742.00;;;-6.42
70415;BMP280;57837;52.064;113.478;2024-02-14T04:43:17;94739.75;;;-6.13
70415;BMP280;57837;52.064;113.478;2024-02-14T04:46:21;94736.84;;;-6.29
70415;BMP280;57837;52.064;113.478;2024-02-14T04:49:26;94733.44;;;-6.64
70415;BMP280;57837;52.064;113.478;2024-02-14T04:52:31;94735.06;;;-6.68
70415;BMP280;57837;52.064;113.478;2024-02-14T04:55:35;94732.88;;;-6.83
70415;BMP280;57837;52.064;113.478;2024-02-14T04:58:39;94734.63;;;-6.92
70415;BMP280;57837;52.064;113.478;2024-02-14T05:01:43;94735.94;;;-7.17
70415;BMP280;57837;52.064;113.478;2024-02-14T05:04:47;94733.72;;;-6.96
70415;BMP280;57837;52.064;113.478;2024-02-14T05:07:50;94731.44;;;-6.75
70415;BMP280;57837;52.064;113.478;2024-02-14T05:10:55;94731.25;;;-6.88
70415;BMP280;57837;52.064;113.478;2024-02-14T05:13:59;94729.63;;;-7.06
70415;BMP280;57837;52.064;113.478;2024-02-14T05:17:04;94731.03;;;-7.36
70415;BMP280;57837;52.064;113.478;2024-02-14T05:20:09;94725.22;;;-7.59
70415;BMP280;57837;52.064;113.478;2024-02-14T05:23:13;94716.69;;;-7.72
70415;BMP280;57837;52.064;113.478;2024-02-14T05:26:16;94710.13;;;-7.59
70415;BMP280;57837;52.064;113.478;2024-02-14T05:29:20;94714.47;;;-7.73
70415;BMP280;57837;52.064;113.478;2024-02-14T05:32:24;94706.19;;;-7.74
70415;BMP280;57837;52.064;113.478;2024-02-14T05:35:28;94716.69;;;-7.72
70415;BMP280;57837;52.064;113.478;2024-02-14T05:38:33;94716.06;;;-7.77
70415;BMP280;57837;52.064;113.478;2024-02-14T05:41:38;94708.88;;;-7.84
70415;BMP280;57837;52.064;113.478;2024-02-14T05:44:42;94712.66;;;-7.59
70415;BMP280;57837;52.064;113.478;2024-02-14T05:47:48;94702.03;;;-7.42
70415;BMP280;57837;52.064;113.478;2024-02-14T05:50:51;94702.97;;;-7.52
70415;BMP280;57837;52.064;113.478;2024-02-14T05:53:56;94703.34;;;-7.22
70415;BMP280;57837;52.064;113.478;2024-02-14T05:56:59;94706.66;;;-7.13
70415;BMP280;57837;52.064;113.478;2024-02-14T06:00:05;94693.19;;;-6.95
70415;BMP280;57837;52.064;113.478;2024-02-14T06:03:12;94691.25;;;-7.20
70415;BMP280;57837;52.064;113.478;2024-02-14T06:06:16;94688.16;;;-7.17
70415;BMP280;57837;52.064;113.478;2024-02-14T06:09:20;94682.97;;;-7.21
70415;BMP280;57837;52.064;113.478;2024-02-14T06:12:24;94687.09;;;-7.38
70415;BMP280;57837;52.064;113.478;2024-02-14T06:15:27;94683.13;;;-7.17
70415;BMP280;57837;52.064;113.478;2024-02-14T06:18:32;94682.66;;;-7.19
70415;BMP280;57837;52.064;113.478;2024-02-14T06:21:35;94670.59;;;-7.31
70415;BMP280;57837;52.064;113.478;2024-02-14T06:24:38;94676.47;;;-7.35
70415;BMP280;57837;52.064;113.478;2024-02-14T06:27:42;94678.75;;;-7.25
70415;BMP280;57837;52.064;113.478;2024-02-14T06:30:46;94669.38;;;-7.11
70415;BMP280;57837;52.064;113.478;2024-02-14T06:33:50;94674.31;;;-7.06
70415;BMP280;57837;52.064;113.478;2024-02-14T06:36:54;94670.94;;;-7.01
70415;BMP280;57837;52.064;113.478;2024-02-14T06:39:58;94674.19;;;-7.23
70415;BMP280;57837;52.064;113.478;2024-02-14T06:43:02;94670.13;;;-7.33
70415;BMP280;57837;52.064;113.478;2024-02-14T06:46:05;94663.59;;;-7.34
70415;BMP280;57837;52.064;113.478;2024-02-14T06:49:10;94669.84;;;-7.09
70415;BMP280;57837;52.064;113.478;2024-02-14T06:52:14;94657.53;;;-7.33
70415;BMP280;57837;52.064;113.478;2024-02-14T06:55:19;94673.72;;;-7.25
70415;BMP280;57837;52.064;113.478;2024-02-14T06:58:22;94672.63;;;-7.19
70415;BMP280;57837;52.064;113.478;2024-02-14T07:01:26;94668.53;;;-7.29
70415;BMP280;57837;52.064;113.478;2024-02-14T07:04:32;94666.31;;;-7.30
70415;BMP280;57837;52.064;113.478;2024-02-14T07:07:36;94660.88;;;-7.46
70415;BMP280;57837;52.064;113.478;2024-02-14T07:10:40;94658.19;;;-7.50
70415;BMP280;57837;52.064;113.478;2024-02-14T07:13:44;94650.81;;;-7.24
70415;BMP280;57837;52.064;113.478;2024-02-14T07:16:49;94651.28;;;-7.22
70415;BMP280;57837;52.064;113.478;2024-02-14T07:19:53;94648.97;;;-7.18
70415;BMP280;57837;52.064;113.478;2024-02-14T07:22:57;94645.34;;;-7.26
70415;BMP280;57837;52.064;113.478;2024-02-14T07:26:01;94651.03;;;-7.34
70415;BMP280;57837;52.064;113.478;2024-02-14T07:29:04;94638.81;;;-7.49
70415;BMP280;57837;52.064;113.478;2024-02-14T07:32:08;94645.69;;;-7.41
70415;BMP280;57837;52.064;113.478;2024-02-14T07:35:11;94646.13;;;-7.61
70415;BMP280;57837;52.064;113.478;2024-02-14T07:38:17;94636.34;;;-7.63
70415;BMP280;57837;52.064;113.478;2024-02-14T07:41:20;94650.38;;;-7.48
70415;BMP280;57837;52.064;113.478;2024-02-14T07:44:23;94650.47;;;-7.53
70415;BMP280;57837;52.064;113.478;2024-02-14T07:47:26;94653.78;;;-7.66
70415;BMP280;57837;52.064;113.478;2024-02-14T07:50:29;94655.81;;;-7.68
70415;BMP280;57837;52.064;113.478;2024-02-14T07:53:33;94652.00;;;-7.66
70415;BMP280;57837;52.064;113.478;2024-02-14T07:56:38;94652.16;;;-7.62
70415;BMP280;57837;52.064;113.478;2024-02-14T07:59:42;94642.50;;;-7.55
70415;BMP280;57837;52.064;113.478;2024-02-14T08:02:46;94650.72;;;-7.41
70415;BMP280;57837;52.064;113.478;2024-02-14T08:05:49;94646.00;;;-7.56
70415;BMP280;57837;52.064;113.478;2024-02-14T08:08:53;94648.72;;;-7.53
70415;BMP280;57837;52.064;113.478;2024-02-14T08:12:00;94653.00;;;-7.53
70415;BMP280;57837;52.064;113.478;2024-02-14T08:15:04;94655.00;;;-7.42
70415;BMP280;57837;52.064;113.478;2024-02-14T08:18:10;94649.91;;;-7.28
70415;BMP280;57837;52.064;113.478;2024-02-14T08:21:13;94654.16;;;-7.15
70415;BMP280;57837;52.064;113.478;2024-02-14T08:24:17;94645.91;;;-7.51
70415;BMP280;57837;52.064;113.478;2024-02-14T08:27:20;94653.34;;;-7.46
70415;BMP280;57837;52.064;113.478;2024-02-14T08:30:25;94657.63;;;-7.47
70415;BMP280;57837;52.064;113.478;2024-02-14T08:33:30;94653.06;;;-7.81
70415;BMP280;57837;52.064;113.478;2024-02-14T08:36:34;94659.31;;;-7.78
70415;BMP280;57837;52.064;113.478;2024-02-14T08:39:44;94655.72;;;-7.63
70415;BMP280;57837;52.064;113.478;2024-02-14T08:42:48;94659.16;;;-7.37
70415;BMP280;57837;52.064;113.478;2024-02-14T08:45:52;94657.56;;;-7.55
70415;BMP280;57837;52.064;113.478;2024-02-14T08:48:56;94663.47;;;-7.74
70415;BMP280;57837;52.064;113.478;2024-02-14T08:52:00;94658.78;;;-8.03
70415;BMP280;57837;52.064;113.478;2024-02-14T08:55:04;94664.91;;;-8.09
70415;BMP280;57837;52.064;113.478;2024-02-14T08:58:11;94652.81;;;-8.07
70415;BMP280;57837;52.064;113.478;2024-02-14T09:01:14;94658.25;;;-8.27
70415;BMP280;57837;52.064;113.478;2024-02-14T09:04:18;94650.03;;;-8.46
70415;BMP280;57837;52.064;113.478;2024-02-14T09:07:21;94651.19;;;-8.52
70415;BMP280;57837;52.064;113.478;2024-02-14T09:10:25;94650.50;;;-8.44
70415;BMP280;57837;52.064;113.478;2024-02-14T09:13:29;94652.06;;;-8.48
70415;BMP280;57837;52.064;113.478;2024-02-14T09:16:34;94656.00;;;-8.56
70415;BMP280;57837;52.064;113.478;2024-02-14T09:19:38;94654.31;;;-8.60
70415;BMP280;57837;52.064;113.478;2024-02-14T09:22:41;94650.94;;;-8.70
70415;BMP280;57837;52.064;113.478;2024-02-14T09:25:44;94657.78;;;-8.75
70415;BMP280;57837;52.064;113.478;2024-02-14T09:28:47;94654.22;;;-8.83
70415;BMP280;57837;52.064;113.478;2024-02-14T09:31:51;94656.09;;;-8.94
70415;BMP280;57837;52.064;113.478;2024-02-14T09:34:54;94648.19;;;-9.01
70415;BMP280;57837;52.064;113.478;2024-02-14T09:37:58;94651.63;;;-9.10
70415;BMP280;57837;52.064;113.478;2024-02-14T09:41:14;94661.50;;;-9.19
70415;BMP280;57837;52.064;113.478;2024-02-14T09:44:19;94656.72;;;-9.34
70415;BMP280;57837;52.064;113.478;2024-02-14T09:47:22;94655.28;;;-9.40
70415;BMP280;57837;52.064;113.478;2024-02-14T09:50:26;94657.06;;;-9.60
70415;BMP280;57837;52.064;113.478;2024-02-14T09:53:32;94660.44;;;-9.69
70415;BMP280;57837;52.064;113.478;2024-02-14T09:56:36;94659.78;;;-9.75
70415;BMP280;57837;52.064;113.478;2024-02-14T09:59:40;94659.50;;;-9.92
70415;BMP280;57837;52.064;113.478;2024-02-14T10:02:43;94664.50;;;-9.92
70415;BMP280;57837;52.064;113.478;2024-02-14T10:05:48;94664.50;;;-9.92
70415;BMP280;57837;52.064;113.478;2024-02-14T10:08:51;94659.38;;;-10.06
70415;BMP280;57837;52.064;113.478;2024-02-14T10:12:05;94659.69;;;-10.13
70415;BMP280;57837;52.064;113.478;2024-02-14T10:15:09;94662.63;;;-10.29
70415;BMP280;57837;52.064;113.478;2024-02-14T10:18:14;94672.19;;;-10.36
70415;BMP280;57837;52.064;113.478;2024-02-14T10:21:19;94674.38;;;-10.30
70415;BMP280;57837;52.064;113.478;2024-02-14T10:24:28;94666.34;;;-10.51
70415;BMP280;57837;52.064;113.478;2024-02-14T10:27:32;94681.16;;;-10.59
70415;BMP280;57837;52.064;113.478;2024-02-14T10:30:36;94677.22;;;-10.65
70415;BMP280;57837;52.064;113.478;2024-02-14T10:33:45;94684.97;;;-10.67
70415;BMP280;57837;52.064;113.478;2024-02-14T10:36:51;94684.28;;;-10.73
70415;BMP280;57837;52.064;113.478;2024-02-14T10:39:56;94684.28;;;-10.73
70415;BMP280;57837;52.064;113.478;2024-02-14T10:43:03;94679.06;;;-10.76
70415;BMP280;57837;52.064;113.478;2024-02-14T10:46:10;94678.53;;;-10.73
70415;BMP280;57837;52.064;113.478;2024-02-14T10:49:16;94685.09;;;-10.82
70415;BMP280;57837;52.064;113.478;2024-02-14T10:52:21;94682.72;;;-10.97
70415;BMP280;57837;52.064;113.478;2024-02-14T10:55:30;94687.81;;;-11.13
70415;BMP280;57837;52.064;113.478;2024-02-14T10:58:35;94681.78;;;-11.07
70415;BMP280;57837;52.064;113.478;2024-02-14T11:01:38;94674.78;;;-11.05
70415;BMP280;57837;52.064;113.478;2024-02-14T11:04:43;94680.50;;;-11.04
70415;BMP280;57837;52.064;113.478;2024-02-14T11:07:49;94679.34;;;-11.17
70415;BMP280;57837;52.064;113.478;2024-02-14T11:10:56;94684.41;;;-11.27
70415;BMP280;57837;52.064;113.478;2024-02-14T11:14:02;94684.69;;;-11.34
70415;BMP280;57837;52.064;113.478;2024-02-14T11:17:11;94684.19;;;-11.31
70415;BMP280;57837;52.064;113.478;2024-02-14T11:20:18;94683.19;;;-11.30
70415;BMP280;57837;52.064;113.478;2024-02-14T11:23:22;94687.63;;;-11.21
70415;BMP280;57837;52.064;113.478;2024-02-14T11:26:38;94683.81;;;-11.14
70415;BMP280;57837;52.064;113.478;2024-02-14T11:29:52;94679.69;;;-11.28
70415;BMP280;57837;52.064;113.478;2024-02-14T11:33:15;94681.72;;;-11.41
70415;BMP280;57837;52.064;113.478;2024-02-14T11:36:19;94673.72;;;-11.38
70415;BMP280;57837;52.064;113.478;2024-02-14T11:39:24;94673.00;;;-11.38
70415;BMP280;57837;52.064;113.478;2024-02-14T11:42:28;94673.47;;;-11.36
70415;BMP280;57837;52.064;113.478;2024-02-14T11:45:32;94683.09;;;-11.19
70415;BMP280;57837;52.064;113.478;2024-02-14T11:48:35;94671.44;;;-11.29
70415;BMP280;57837;52.064;113.478;2024-02-14T11:51:42;94670.44;;;-11.33
70415;BMP280;57837;52.064;113.478;2024-02-14T11:54:48;94675.50;;;-11.43
70415;BMP280;57837;52.064;113.478;2024-02-14T11:57:54;94669.34;;;-11.56
70415;BMP280;57837;52.064;113.478;2024-02-14T12:01:03;94669.88;;;-11.64
70415;BMP280;57837;52.064;113.478;2024-02-14T12:04:10;94679.13;;;-11.70
70415;BMP280;57837;52.064;113.478;2024-02-14T12:07:15;94670.91;;;-11.70
70415;BMP280;57837;52.064;113.478;2024-02-14T12:10:19;94675.38;;;-11.67
70415;BMP280;57837;52.064;113.478;2024-02-14T12:13:25;94669.16;;;-11.70
70415;BMP280;57837;52.064;113.478;2024-02-14T12:16:29;94667.41;;;-11.69
70415;BMP280;57837;52.064;113.478;2024-02-14T12:19:35;94669.38;;;-11.66
70415;BMP280;57837;52.064;113.478;2024-02-14T12:22:41;94668.63;;;-11.67
70415;BMP280;57837;52.064;113.478;2024-02-14T12:25:45;94669.84;;;-11.59
70415;BMP280;57837;52.064;113.478;2024-02-14T12:28:51;94667.63;;;-11.66
70415;BMP280;57837;52.064;113.478;2024-02-14T12:32:06;94673.94;;;-11.78
70415;BMP280;57837;52.064;113.478;2024-02-14T12:35:10;94670.47;;;-11.88
70415;BMP280;57837;52.064;113.478;2024-02-14T12:38:15;94678.72;;;-11.97
70415;BMP280;57837;52.064;113.478;2024-02-14T12:41:19;94667.50;;;-11.95
70415;BMP280;57837;52.064;113.478;2024-02-14T12:44:23;94676.72;;;-11.90
70415;BMP280;57837;52.064;113.478;2024-02-14T12:47:27;94671.25;;;-11.92
70415;BMP280;57837;52.064;113.478;2024-02-14T12:50:36;94666.75;;;-11.85
70415;BMP280;57837;52.064;113.478;2024-02-14T12:53:43;94671.66;;;-11.75
70415;BMP280;57837;52.064;113.478;2024-02-14T12:56:48;94667.97;;;-11.82
70415;BMP280;57837;52.064;113.478;2024-02-14T12:59:52;94670.72;;;-11.94
70415;BMP280;57837;52.064;113.478;2024-02-14T13:02:55;94669.50;;;-11.97
70415;BMP280;57837;52.064;113.478;2024-02-14T13:05:59;94668.31;;;-12.09
70415;BMP280;57837;52.064;113.478;2024-02-14T13:09:03;94670.56;;;-12.18
70415;BMP280;57837;52.064;113.478;2024-02-14T13:12:08;94677.03;;;-12.17
70415;BMP280;57837;52.064;113.478;2024-02-14T13:15:12;94668.81;;;-12.23
70415;BMP280;57837;52.064;113.478;2024-02-14T13:18:17;94672.03;;;-12.07
70415;BMP280;57837;52.064;113.478;2024-02-14T13:21:24;94662.81;;;-12.06
70415;BMP280;57837;52.064;113.478;2024-02-14T13:24:29;94659.78;;;-12.03
70415;BMP280;57837;52.064;113.478;2024-02-14T13:27:34;94660.34;;;-12.11
70415;BMP280;57837;52.064;113.478;2024-02-14T13:30:37;94656.13;;;-12.21
70415;BMP280;57837;52.064;113.478;2024-02-14T13:33:44;94658.63;;;-12.31
70415;BMP280;57837;52.064;113.478;2024-02-14T13:36:49;94653.44;;;-12.35
70415;BMP280;57837;52.064;113.478;2024-02-14T13:39:52;94655.66;;;-12.38
70415;BMP280;57837;52.064;113.478;2024-02-14T13:42:55;94652.41;;;-12.44
70415;BMP280;57837;52.064;113.478;2024-02-14T13:45:59;94641.19;;;-12.36
70415;BMP280;57837;52.064;113.478;2024-02-14T13:49:03;94638.94;;;-12.33
70415;BMP280;57837;52.064;113.478;2024-02-14T13:52:07;94638.22;;;-12.38
70415;BMP280;57837;52.064;113.478;2024-02-14T13:55:11;94640.47;;;-12.52
70415;BMP280;57837;52.064;113.478;2024-02-14T13:58:15;94631.75;;;-12.60
70415;BMP280;57837;52.064;113.478;2024-02-14T14:01:20;94634.97;;;-12.59
70415;BMP280;57837;52.064;113.478;2024-02-14T14:04:24;94639.00;;;-12.74
70415;BMP280;57837;52.064;113.478;2024-02-14T14:07:29;94639.25;;;-12.70
70415;BMP280;57837;52.064;113.478;2024-02-14T14:10:39;94628.53;;;-12.70
70415;BMP280;57837;52.064;113.478;2024-02-14T14:13:44;94639.25;;;-12.75
70415;BMP280;57837;52.064;113.478;2024-02-14T14:16:48;94635.53;;;-12.93
70415;BMP280;57837;52.064;113.478;2024-02-14T14:19:53;94631.56;;;-12.89
70415;BMP280;57837;52.064;113.478;2024-02-14T14:22:57;94635.78;;;-12.89
70415;BMP280;57837;52.064;113.478;2024-02-14T14:26:01;94628.03;;;-12.98
70415;BMP280;57837;52.064;113.478;2024-02-14T14:29:06;94625.31;;;-13.27
70415;BMP280;57837;52.064;113.478;2024-02-14T14:32:11;94619.53;;;-13.53
70415;BMP280;57837;52.064;113.478;2024-02-14T14:35:16;94618.25;;;-13.71
70415;BMP280;57837;52.064;113.478;2024-02-14T14:38:20;94614.50;;;-13.78
70415;BMP280;57837;52.064;113.478;2024-02-14T14:41:24;94604.72;;;-14.00
70415;BMP280;57837;52.064;113.478;2024-02-14T14:44:28;94604.72;;;-14.00
70415;BMP280;57837;52.064;113.478;2024-02-14T14:47:34;94606.47;;;-14.06
70415;BMP280;57837;52.064;113.478;2024-02-14T14:50:39;94603.63;;;-14.30
70415;BMP280;57837;52.064;113.478;2024-02-14T14:53:42;94590.09;;;-14.44
70415;BMP280;57837;52.064;113.478;2024-02-14T14:56:46;94596.56;;;-14.48
70415;BMP280;57837;52.064;113.478;2024-02-14T14:59:53;94590.31;;;-14.51
70415;BMP280;57837;52.064;113.478;2024-02-14T15:02:56;94586.50;;;-14.68
70415;BMP280;57837;52.064;113.478;2024-02-14T15:06:01;94584.50;;;-14.66
70415;BMP280;57837;52.064;113.478;2024-02-14T15:09:05;94579.59;;;-14.61
70415;BMP280;57837;52.064;113.478;2024-02-14T15:12:09;94570.84;;;-14.69
70415;BMP280;57837;52.064;113.478;2024-02-14T15:15:13;94570.84;;;-14.69
70415;BMP280;57837;52.064;113.478;2024-02-14T15:18:17;94565.00;;;-14.53
70415;BMP280;57837;52.064;113.478;2024-02-14T15:21:21;94565.59;;;-14.25
70415;BMP280;57837;52.064;113.478;2024-02-14T15:24:26;94556.19;;;-14.18
70415;BMP280;57837;52.064;113.478;2024-02-14T15:27:30;94545.00;;;-14.16
70415;BMP280;57837;52.064;113.478;2024-02-14T15:30:39;94540.56;;;-14.08
70415;BMP280;57837;52.064;113.478;2024-02-14T15:34:01;94555.28;;;-13.92
70415;BMP280;57837;52.064;113.478;2024-02-14T15:37:08;94543.34;;;-13.90
70415;BMP280;57837;52.064;113.478;2024-02-14T15:40:12;94539.13;;;-13.89
70415;BMP280;57837;52.064;113.478;2024-02-14T15:43:16;94543.09;;;-13.93
70415;BMP280;57837;52.064;113.478;2024-02-14T15:46:19;94544.31;;;-14.06
70415;BMP280;57837;52.064;113.478;2024-02-14T15:49:24;94529.84;;;-14.14
70415;BMP280;57837;52.064;113.478;2024-02-14T15:52:32;94530.56;;;-14.24
70415;BMP280;57837;52.064;113.478;2024-02-14T15:55:37;94521.59;;;-14.35
70415;BMP280;57837;52.064;113.478;2024-02-14T15:58:41;94518.03;;;-14.49
70415;BMP280;57837;52.064;113.478;2024-02-14T16:01:45;94518.75;;;-14.64
70415;BMP280;57837;52.064;113.478;2024-02-14T16:04:49;94511.50;;;-14.71
70415;BMP280;57837;52.064;113.478;2024-02-14T16:07:53;94509.97;;;-14.77
70415;BMP280;57837;52.064;113.478;2024-02-14T16:10:57;94515.81;;;-14.98
70415;BMP280;57837;52.064;113.478;2024-02-14T16:14:01;94501.31;;;-15.16
70415;BMP280;57837;52.064;113.478;2024-02-14T16:17:05;94497.72;;;-15.31
70415;BMP280;57837;52.064;113.478;2024-02-14T16:20:11;94497.91;;;-15.42
70415;BMP280;57837;52.064;113.478;2024-02-14T16:23:15;94496.03;;;-15.62
70415;BMP280;57837;52.064;113.478;2024-02-14T16:26:19;94486.31;;;-15.69
70415;BMP280;57837;52.064;113.478;2024-02-14T16:29:24;94485.44;;;-15.79
70415;BMP280;57837;52.064;113.478;2024-02-14T16:32:28;94479.38;;;-15.94
70415;BMP280;57837;52.064;113.478;2024-02-14T16:35:31;94470.34;;;-16.05
70415;BMP280;57837;52.064;113.478;2024-02-14T16:38:35;94475.75;;;-16.08
70415;BMP280;57837;52.064;113.478;2024-02-14T16:41:40;94468.38;;;-16.03
70415;BMP280;57837;52.064;113.478;2024-02-14T16:44:44;94459.19;;;-16.07
70415;BMP280;57837;52.064;113.478;2024-02-14T16:47:48;94448.56;;;-16.03
70415;BMP280;57837;52.064;113.478;2024-02-14T16:50:51;94461.22;;;-15.99
70415;BMP280;57837;52.064;113.478;2024-02-14T16:53:55;94451.56;;;-16.01
70415;BMP280;57837;52.064;113.478;2024-02-14T16:57:00;94439.88;;;-16.05
70415;BMP280;57837;52.064;113.478;2024-02-14T17:00:13;94441.25;;;-16.15
70415;BMP280;57837;52.064;113.478;2024-02-14T17:03:16;94437.59;;;-16.12
70415;BMP280;57837;52.064;113.478;2024-02-14T17:06:22;94439.00;;;-16.16